Terminal Aerodrome Forecast
Issued by NWS Des Moines, IA

Home | Current Version | Previous Version | Text Only | Print | Product List | Glossary On
Versions: 1 2 3 4 5 6 7 8 9 10 11 12 13 14 15
000
FTUS43 KDMX 220150 AAB
TAFALO
TAF AMD
KALO 220150Z 2202/2224 18017G20KT 5SM -TSRA OVC035CB
     FM220400 26010KT 4SM BR VCTS OVC025CB
     FM220600 31007KT P6SM -SHRA BKN060
     FM221100 31011KT P6SM VCSH OVC100
     FM221200 31005KT P6SM BKN100 OVC150
     FM221700 32012G18KT P6SM BKN230=

USA.gov is the U.S. government's official web portal to all federal, state and local government web resources and services.